createdAt,value
2023-03-29T00:00:20.508Z,95573.00
2023-03-29T00:04:20.729Z,95581.00
2023-03-29T00:08:20.862Z,95600.00
2023-03-29T00:12:21.330Z,95614.00
2023-03-29T00:16:21.384Z,95618.00
2023-03-29T00:20:21.061Z,95612.00
2023-03-29T00:24:21.266Z,95608.00
2023-03-29T00:28:21.359Z,95624.00
2023-03-29T00:32:21.399Z,95636.00
2023-03-29T00:36:21.383Z,95636.00
2023-03-29T00:40:21.292Z,95648.00
2023-03-29T00:44:21.866Z,95655.00
2023-03-29T00:48:21.865Z,95667.00
2023-03-29T00:52:21.432Z,95655.00
2023-03-29T00:56:21.864Z,95646.00
2023-03-29T01:00:21.459Z,95667.00
2023-03-29T01:04:21.861Z,95675.00
2023-03-29T01:08:21.346Z,95683.00
2023-03-29T01:12:21.349Z,95667.00
2023-03-29T01:16:21.374Z,95675.00
2023-03-29T01:20:21.372Z,95655.00
2023-03-29T01:24:21.263Z,95646.00
2023-03-29T01:28:21.365Z,95655.00
2023-03-29T01:32:21.423Z,95648.00
2023-03-29T01:36:21.236Z,95651.00
2023-03-29T01:40:21.406Z,95663.00
2023-03-29T01:44:21.392Z,95648.00
2023-03-29T01:48:21.393Z,95638.00
2023-03-29T01:52:21.167Z,95636.00
2023-03-29T01:56:21.207Z,95638.00
2023-03-29T02:00:21.452Z,95638.00
2023-03-29T02:04:21.415Z,95632.00
2023-03-29T02:08:21.132Z,95624.00
2023-03-29T02:12:21.106Z,95622.00
2023-03-29T02:16:21.484Z,95616.00
2023-03-29T02:20:21.414Z,95612.00
2023-03-29T02:24:21.137Z,95604.00
2023-03-29T02:28:21.432Z,95602.00
2023-03-29T02:32:21.149Z,95602.00
2023-03-29T02:36:21.414Z,95606.00
2023-03-29T02:40:21.394Z,95614.00
2023-03-29T02:44:21.436Z,95610.00
2023-03-29T02:48:21.096Z,95604.00
2023-03-29T02:52:21.078Z,95600.00
2023-03-29T02:56:21.937Z,95587.00
2023-03-29T03:00:21.438Z,95583.00
2023-03-29T03:04:21.491Z,95583.00
2023-03-29T03:08:21.427Z,95581.00
2023-03-29T03:12:21.250Z,95581.00
2023-03-29T03:16:21.332Z,95579.00
2023-03-29T03:20:21.495Z,95589.00
2023-03-29T03:24:21.454Z,95589.00
2023-03-29T03:28:21.251Z,95593.00
2023-03-29T03:32:21.290Z,95606.00
2023-03-29T03:36:21.417Z,95608.00
2023-03-29T03:40:21.432Z,95618.00
2023-03-29T03:44:21.426Z,95626.00
2023-03-29T03:48:21.495Z,95622.00
2023-03-29T03:52:21.518Z,95612.00
2023-03-29T03:56:21.966Z,95604.00
2023-03-29T04:00:21.981Z,95600.00
2023-03-29T04:04:21.966Z,95600.00
2023-03-29T04:08:21.593Z,95596.00
2023-03-29T04:12:21.978Z,95593.00
2023-03-29T04:16:21.986Z,95581.00
2023-03-29T04:20:21.942Z,95571.00
2023-03-29T04:24:21.597Z,95557.00
2023-03-29T04:28:21.642Z,95563.00
2023-03-29T04:32:22.013Z,95567.00
2023-03-29T04:36:21.997Z,95551.00
2023-03-29T04:40:21.948Z,95530.00
2023-03-29T04:44:21.988Z,95538.00
2023-03-29T04:48:21.774Z,95526.00
2023-03-29T04:52:24.401Z,95522.00
2023-03-29T04:56:21.976Z,95524.00
2023-03-29T05:00:21.996Z,95522.00
2023-03-29T05:04:21.686Z,95528.00
2023-03-29T05:08:21.977Z,95512.00
2023-03-29T05:12:29.553Z,95512.00
2023-03-29T05:16:21.715Z,95500.00
2023-03-29T05:20:22.047Z,95500.00
2023-03-29T05:24:21.438Z,95500.00
2023-03-29T05:28:21.510Z,95497.00
2023-03-29T05:32:21.530Z,95499.00
2023-03-29T05:36:21.450Z,95495.00
2023-03-29T05:40:22.065Z,95502.00
2023-03-29T05:44:21.637Z,95499.00
2023-03-29T05:48:22.034Z,95506.00
2023-03-29T05:52:22.074Z,95510.00
2023-03-29T05:56:21.840Z,95508.00
2023-03-29T06:00:22.038Z,95520.00
2023-03-29T06:04:22.038Z,95512.00
2023-03-29T06:08:22.029Z,95516.00
2023-03-29T06:12:22.053Z,95522.00
2023-03-29T06:16:22.042Z,95534.00
2023-03-29T06:20:21.641Z,95526.00
2023-03-29T06:24:22.539Z,95534.00
2023-03-29T06:28:22.055Z,95534.00
2023-03-29T06:32:21.570Z,95534.00
2023-03-29T06:36:21.540Z,95540.00
2023-03-29T06:40:21.606Z,95544.00
2023-03-29T06:44:21.540Z,95546.00
2023-03-29T06:48:21.593Z,95559.00
2023-03-29T06:52:21.553Z,95563.00
2023-03-29T06:56:21.590Z,95563.00
2023-03-29T07:00:21.302Z,95563.00
2023-03-29T07:04:21.437Z,95553.00
2023-03-29T07:08:22.067Z,95546.00
2023-03-29T07:12:22.092Z,95551.00
2023-03-29T07:16:21.998Z,95561.00
2023-03-29T07:20:22.560Z,95559.00
2023-03-29T07:24:21.965Z,95557.00
2023-03-29T07:28:29.117Z,95553.00
2023-03-29T07:32:22.048Z,95551.00
2023-03-29T07:36:21.960Z,95559.00
2023-03-29T07:40:22.068Z,95559.00
2023-03-29T07:44:21.897Z,95553.00
2023-03-29T07:48:22.086Z,95555.00
2023-03-29T07:52:22.088Z,95547.00
2023-03-29T07:56:21.746Z,95553.00
2023-03-29T08:00:22.114Z,95557.00
2023-03-29T08:04:22.187Z,95561.00
2023-03-29T08:08:22.093Z,95553.00
2023-03-29T08:12:24.494Z,95553.00
2023-03-29T08:16:22.127Z,95561.00
2023-03-29T08:20:22.130Z,95569.00
2023-03-29T08:24:22.117Z,95567.00
2023-03-29T08:28:22.093Z,95567.00
2023-03-29T08:32:22.061Z,95567.00
2023-03-29T08:36:22.123Z,95573.00
2023-03-29T08:40:22.110Z,95581.00
2023-03-29T08:44:22.143Z,95589.00
2023-03-29T08:48:22.126Z,95594.00
2023-03-29T08:52:21.719Z,95585.00
2023-03-29T08:56:22.133Z,95589.00
2023-03-29T09:00:22.118Z,95583.00
2023-03-29T09:04:22.107Z,95583.00
2023-03-29T09:08:21.617Z,95583.00
2023-03-29T09:12:21.656Z,95587.00
2023-03-29T09:16:21.925Z,95579.00
2023-03-29T09:20:22.121Z,95571.00
2023-03-29T09:24:22.136Z,95577.00
2023-03-29T09:28:22.034Z,95575.00
2023-03-29T09:32:22.123Z,95577.00
2023-03-29T09:36:22.125Z,95579.00
2023-03-29T09:40:22.163Z,95575.00
2023-03-29T09:44:30.758Z,95573.00
2023-03-29T09:48:22.821Z,95567.00
2023-03-29T09:52:22.156Z,95565.00
2023-03-29T09:56:21.967Z,95561.00
2023-03-29T10:00:21.990Z,95557.00
2023-03-29T10:04:21.907Z,95551.00
2023-03-29T10:08:21.835Z,95542.00
2023-03-29T10:12:21.836Z,95542.00
2023-03-29T10:16:21.808Z,95538.00
2023-03-29T10:20:21.715Z,95534.00
2023-03-29T10:24:21.683Z,95532.00
2023-03-29T10:28:21.640Z,95532.00
2023-03-29T10:32:21.602Z,95534.00
2023-03-29T10:36:21.626Z,95532.00
2023-03-29T10:40:21.657Z,95532.00
2023-03-29T10:44:21.589Z,95536.00
2023-03-29T10:48:22.671Z,95528.00
2023-03-29T10:52:21.674Z,95530.00
2023-03-29T10:56:21.686Z,95526.00
2023-03-29T11:00:21.654Z,95532.00
2023-03-29T11:04:21.427Z,95524.00
2023-03-29T11:08:21.673Z,95526.00
2023-03-29T11:12:21.294Z,95526.00
2023-03-29T11:16:21.332Z,95520.00
2023-03-29T11:20:21.696Z,95510.00
2023-03-29T11:24:21.207Z,95508.00
2023-03-29T11:28:21.181Z,95499.00
2023-03-29T11:32:21.208Z,95500.00
2023-03-29T11:36:21.110Z,95497.00
2023-03-29T11:40:21.097Z,95495.00
2023-03-29T11:44:21.032Z,95499.00
2023-03-29T11:48:20.979Z,95497.00
2023-03-29T11:52:21.022Z,95487.00
2023-03-29T11:56:21.017Z,95483.00
2023-03-29T12:00:20.991Z,95469.00
2023-03-29T12:04:20.955Z,95463.00
2023-03-29T12:08:21.169Z,95461.00
2023-03-29T12:12:21.187Z,95448.00
2023-03-29T12:16:20.904Z,95446.00
2023-03-29T12:20:20.771Z,95440.00
2023-03-29T12:24:21.215Z,95438.00
2023-03-29T12:28:21.208Z,95432.00
2023-03-29T12:32:20.753Z,95424.00
2023-03-29T12:36:20.687Z,95422.00
2023-03-29T12:40:20.645Z,95418.00
2023-03-29T12:44:20.650Z,95422.00
2023-03-29T12:48:20.575Z,95412.00
2023-03-29T12:52:20.517Z,95416.00
2023-03-29T12:56:20.488Z,95414.00
2023-03-29T13:00:20.719Z,95406.00
2023-03-29T13:04:27.775Z,95389.00
2023-03-29T13:08:20.370Z,95387.00
2023-03-29T13:12:20.383Z,95381.00
2023-03-29T13:16:20.446Z,95385.00
2023-03-29T13:20:20.303Z,95389.00
2023-03-29T13:24:20.266Z,95391.00
2023-03-29T13:28:20.237Z,95393.00
2023-03-29T13:32:20.184Z,95395.00
2023-03-29T13:36:20.186Z,95408.00
2023-03-29T13:40:20.098Z,95408.00
2023-03-29T13:44:20.282Z,95406.00
2023-03-29T13:48:20.112Z,95410.00
2023-03-29T13:52:20.054Z,95406.00
2023-03-29T13:56:20.014Z,95391.00
2023-03-29T14:00:20.002Z,95391.00
2023-03-29T14:04:19.989Z,95381.00
2023-03-29T14:08:19.979Z,95383.00
2023-03-29T14:12:19.910Z,95391.00
2023-03-29T14:16:19.924Z,95389.00
2023-03-29T14:20:19.920Z,95389.00
2023-03-29T14:24:19.912Z,95391.00
2023-03-29T14:28:20.296Z,95383.00
2023-03-29T14:32:19.939Z,95381.00
2023-03-29T14:36:20.046Z,95389.00
2023-03-29T14:40:20.317Z,95389.00
2023-03-29T14:44:19.910Z,95395.00
2023-03-29T14:48:20.344Z,95389.00
2023-03-29T14:52:19.923Z,95387.00
2023-03-29T14:56:20.291Z,95391.00
2023-03-29T15:00:20.007Z,95393.00
2023-03-29T15:04:20.360Z,95397.00
2023-03-29T15:08:20.315Z,95397.00
2023-03-29T15:12:20.117Z,95393.00
2023-03-29T15:16:20.190Z,95387.00
2023-03-29T15:20:20.370Z,95373.00
2023-03-29T15:24:20.184Z,95363.00
2023-03-29T15:28:20.337Z,95357.00
2023-03-29T15:32:20.287Z,95350.00
2023-03-29T15:36:20.417Z,95348.00
2023-03-29T15:40:20.823Z,95350.00
2023-03-29T15:44:20.494Z,95346.00
2023-03-29T15:48:20.833Z,95350.00
2023-03-29T15:52:20.614Z,95338.00
2023-03-29T15:56:20.729Z,95338.00
2023-03-29T16:00:20.849Z,95334.00
2023-03-29T16:04:20.836Z,95330.00
2023-03-29T16:08:21.344Z,95330.00
2023-03-29T16:12:20.982Z,95334.00
2023-03-29T16:16:21.099Z,95334.00
2023-03-29T16:20:21.121Z,95326.00
2023-03-29T16:24:21.225Z,95334.00
2023-03-29T16:28:21.306Z,95336.00
2023-03-29T16:32:21.413Z,95328.00
2023-03-29T16:36:21.537Z,95328.00
2023-03-29T16:40:21.648Z,95330.00
2023-03-29T16:44:23.566Z,95324.00
2023-03-29T16:48:21.875Z,95326.00
2023-03-29T16:52:21.868Z,95322.00
2023-03-29T16:56:21.872Z,95324.00
2023-03-29T17:00:22.341Z,95316.00
2023-03-29T17:04:22.056Z,95316.00
2023-03-29T17:08:22.113Z,95316.00
2023-03-29T17:12:21.993Z,95326.00
2023-03-29T17:16:22.446Z,95326.00
2023-03-29T17:20:21.903Z,95322.00
2023-03-29T17:24:22.351Z,95320.00
2023-03-29T17:28:21.827Z,95328.00
2023-03-29T17:32:21.835Z,95330.00
2023-03-29T17:36:21.883Z,95334.00
2023-03-29T17:40:21.735Z,95338.00
2023-03-29T17:44:21.893Z,95344.00
2023-03-29T17:48:21.693Z,95338.00
2023-03-29T17:52:21.845Z,95346.00
2023-03-29T17:56:21.601Z,95353.00
2023-03-29T18:00:21.885Z,95350.00
2023-03-29T18:04:21.555Z,95355.00
2023-03-29T18:08:21.895Z,95363.00
2023-03-29T18:12:21.911Z,95359.00
2023-03-29T18:16:21.918Z,95369.00
2023-03-29T18:20:21.882Z,95363.00
2023-03-29T18:24:21.749Z,95359.00
2023-03-29T18:28:21.874Z,95353.00
2023-03-29T18:32:22.407Z,95352.00
2023-03-29T18:36:22.442Z,95361.00
2023-03-29T18:40:22.189Z,95367.00
2023-03-29T18:44:22.324Z,95369.00
2023-03-29T18:48:29.910Z,95367.00
2023-03-29T18:52:22.444Z,95379.00
2023-03-29T18:56:22.416Z,95389.00
2023-03-29T19:00:22.269Z,95406.00
2023-03-29T19:04:23.072Z,95397.00
2023-03-29T19:08:22.444Z,95406.00
2023-03-29T19:12:22.423Z,95408.00
2023-03-29T19:16:22.250Z,95410.00
2023-03-29T19:20:22.913Z,95420.00
2023-03-29T19:24:22.319Z,95424.00
2023-03-29T19:28:22.476Z,95414.00
2023-03-29T19:32:22.470Z,95424.00
2023-03-29T19:36:22.964Z,95416.00
2023-03-29T19:40:22.595Z,95418.00
2023-03-29T19:44:22.923Z,95436.00
2023-03-29T19:48:24.422Z,95442.00
2023-03-29T19:52:22.745Z,95450.00
2023-03-29T19:56:22.929Z,95450.00
2023-03-29T20:00:22.820Z,95446.00
2023-03-29T20:04:22.978Z,95453.00
2023-03-29T20:08:23.439Z,95457.00
2023-03-29T20:12:23.121Z,95457.00
2023-03-29T20:16:23.512Z,95450.00
2023-03-29T20:20:23.443Z,95450.00
2023-03-29T20:24:23.650Z,95452.00
2023-03-29T20:28:23.995Z,95448.00
2023-03-29T20:32:24.033Z,95442.00
2023-03-29T20:36:24.574Z,95438.00
2023-03-29T20:40:24.423Z,95438.00
2023-03-29T20:44:24.475Z,95432.00
2023-03-29T20:48:24.498Z,95426.00
2023-03-29T20:52:24.318Z,95428.00
2023-03-29T20:56:24.470Z,95414.00
2023-03-29T21:00:24.230Z,95418.00
2023-03-29T21:04:24.166Z,95395.00
2023-03-29T21:08:24.480Z,95395.00
2023-03-29T21:12:24.094Z,95385.00
2023-03-29T21:16:24.533Z,95383.00
2023-03-29T21:20:24.218Z,95385.00
2023-03-29T21:24:24.106Z,95383.00
2023-03-29T21:28:24.476Z,95385.00
2023-03-29T21:32:24.065Z,95377.00
2023-03-29T21:36:24.017Z,95375.00
2023-03-29T21:40:23.963Z,95377.00
2023-03-29T21:44:24.024Z,95375.00
2023-03-29T21:48:23.988Z,95373.00
2023-03-29T21:52:24.006Z,95371.00
2023-03-29T21:56:23.837Z,95375.00
2023-03-29T22:00:23.990Z,95373.00
2023-03-29T22:04:35.931Z,95375.00
2023-03-29T22:08:25.491Z,95379.00
2023-03-29T22:12:24.013Z,95379.00
2023-03-29T22:16:24.054Z,95377.00
2023-03-29T22:20:24.527Z,95381.00
2023-03-29T22:24:24.178Z,95379.00
2023-03-29T22:28:24.512Z,95377.00
2023-03-29T22:32:24.527Z,95383.00
2023-03-29T22:36:24.266Z,95381.00
2023-03-29T22:40:24.318Z,95383.00
2023-03-29T22:44:24.534Z,95367.00
2023-03-29T22:48:24.413Z,95363.00
2023-03-29T22:52:24.619Z,95367.00
2023-03-29T22:56:24.413Z,95363.00
2023-03-29T23:00:24.420Z,95363.00
2023-03-29T23:04:24.567Z,95357.00
2023-03-29T23:08:24.386Z,95359.00
2023-03-29T23:12:24.375Z,95359.00
2023-03-29T23:16:24.634Z,95361.00
2023-03-29T23:20:24.547Z,95355.00
2023-03-29T23:24:24.532Z,95357.00
2023-03-29T23:28:24.326Z,95350.00
2023-03-29T23:32:24.382Z,95344.00
2023-03-29T23:36:24.542Z,95342.00
2023-03-29T23:40:24.592Z,95338.00
2023-03-29T23:44:24.545Z,95330.00
2023-03-29T23:48:24.304Z,95324.00
2023-03-29T23:52:24.293Z,95316.00
2023-03-29T23:56:24.610Z,95306.00
